KPSK/PSK METAR and TAF weather

Enter ICAO airport designator
Station Type Date Time Source
KPSK METAR 2019/04/18 14:15 UTC NOAA

KPSK 181415Z AUTO 09004KT 10SM CLR 17/13 A3002 RMK AO2 T01740133


Station Type Date Time Source
KPSK Decoded METAR 2019/04/18 14:15 UTC NOAA

Dublin / New River Valley, VA, United States (KPSK) 37-08N 080-41W
Apr 18, 2019 - 10:15 AM EDT / 2019.04.18 1415 UTC
Wind: from the E (090 degrees) at 5 MPH (4 KT):0
Visibility: 10 mile(s):0
Sky conditions: clear
Temperature: 63.3 F (17.4 C)
Dew Point: 55.9 F (13.3 C)
Relative Humidity: 76%
Pressure (altimeter): 30.02 in. Hg (1016 hPa)
ob: KPSK 181415Z AUTO 09004KT 10SM CLR 17/13 A3002 RMK AO2 T01740133
cycle: 14

Station Type Date Time Source
KPSK TAF UTC NOAA

Error!

Example: see airport list